Time;durP1;ratioP1;P1;durP2;ratioP2;P2;SDS_P1;SDS_P2;PMS_P1;PMS_P2;Temp;Humidity;BMP_temperature;BMP_pressure;BME280_temperature;BME280_humidity;BME280_pressure;Samples;Min_cycle;Max_cycle;Signal;HPM_P1;HPM_P2
2024/01/17 00:00:31;;;;;;;50.00;17.33;;;-2.00;99.90;;;;;;4847495;29;20432;-77
2024/01/17 00:03:00;;;;;;;48.63;16.95;;;-1.90;99.90;;;;;;4861108;29;20060;-75
2024/01/17 00:05:28;;;;;;;47.38;17.75;;;-2.00;99.90;;;;;;4843867;29;20726;-75
2024/01/17 00:07:57;;;;;;;43.88;16.98;;;-2.00;99.90;;;;;;4857390;29;20053;-74
2024/01/17 00:10:25;;;;;;;38.90;17.05;;;-2.00;99.90;;;;;;4844544;29;20172;-75
2024/01/17 00:12:54;;;;;;;36.92;16.45;;;-2.00;99.90;;;;;;4858095;29;20064;-74
2024/01/17 00:15:23;;;;;;;36.17;15.52;;;-2.00;99.90;;;;;;4841790;29;20080;-75
2024/01/17 00:17:53;;;;;;;41.13;15.23;;;-2.00;99.90;;;;;;4843224;29;20711;-75
2024/01/17 00:20:21;;;;;;;34.08;14.38;;;-2.00;99.90;;;;;;4859053;29;20810;-76
2024/01/17 00:22:50;;;;;;;35.92;15.35;;;-2.10;99.90;;;;;;4848606;29;20056;-76
2024/01/17 00:25:18;;;;;;;35.20;14.95;;;-2.10;99.90;;;;;;4849229;29;20544;-74
2024/01/17 00:27:49;;;;;;;36.28;14.90;;;-2.10;99.90;;;;;;4851965;29;20059;-73
2024/01/17 00:30:17;;;;;;;38.92;16.00;;;-2.20;99.90;;;;;;4854346;29;20529;-76
2024/01/17 00:32:46;;;;;;;45.72;14.73;;;-2.20;99.90;;;;;;4862427;29;20064;-74
2024/01/17 00:35:16;;;;;;;42.35;14.00;;;-2.10;99.90;;;;;;4844530;29;20093;-74
2024/01/17 00:37:44;;;;;;;39.67;14.40;;;-2.20;99.90;;;;;;4859700;29;20196;-76
2024/01/17 00:40:14;;;;;;;37.85;15.10;;;-2.20;99.90;;;;;;4860094;29;20138;-74
2024/01/17 00:42:42;;;;;;;39.80;15.20;;;-2.20;99.90;;;;;;4870060;29;20037;-74
2024/01/17 00:45:13;;;;;;;39.17;14.88;;;-2.20;99.90;;;;;;4854058;29;20064;-75
2024/01/17 00:47:42;;;;;;;41.50;14.25;;;-1.60;99.90;;;;;;4860265;29;20057;-74
2024/01/17 00:50:11;;;;;;;38.88;14.75;;;-2.30;99.90;;;;;;4853202;29;20135;-76
2024/01/17 00:52:41;;;;;;;35.95;14.45;;;-2.30;99.90;;;;;;4849881;29;20661;-75
2024/01/17 00:55:09;;;;;;;34.05;13.07;;;-2.30;99.90;;;;;;4860245;29;22771;-74
2024/01/17 00:57:38;;;;;;;35.55;13.52;;;-2.30;99.90;;;;;;4849445;29;20067;-76
2024/01/17 01:00:08;;;;;;;36.63;13.77;;;-2.40;99.90;;;;;;4858389;29;20048;-75
2024/01/17 01:02:37;;;;;;;38.03;12.50;;;-2.30;99.90;;;;;;4862606;29;20133;-75
2024/01/17 01:05:06;;;;;;;27.60;11.85;;;-2.40;99.90;;;;;;4863617;29;20088;-74
2024/01/17 01:07:35;;;;;;;32.85;12.68;;;-2.40;99.90;;;;;;4850206;29;20056;-74
2024/01/17 01:10:05;;;;;;;30.58;11.00;;;-2.30;99.90;;;;;;4861663;29;20081;-74
2024/01/17 01:12:34;;;;;;;28.67;10.80;;;-2.40;99.90;;;;;;4867559;29;20092;-78
2024/01/17 01:15:03;;;;;;;29.40;11.27;;;-2.40;99.90;;;;;;4877431;29;20032;-78
2024/01/17 01:17:31;;;;;;;27.48;11.30;;;-2.40;99.90;;;;;;4857721;29;20089;-78
2024/01/17 01:20:00;;;;;;;28.27;10.52;;;-2.50;99.90;;;;;;4873323;29;20754;-78
2024/01/17 01:22:28;;;;;;;27.73;10.93;;;-2.50;99.90;;;;;;4884270;29;20040;-79
2024/01/17 01:24:57;;;;;;;30.92;12.38;;;-2.50;99.90;;;;;;4864933;29;20069;-78
2024/01/17 01:27:26;;;;;;;27.38;12.82;;;-2.40;99.90;;;;;;4857610;29;20040;-78
2024/01/17 01:29:55;;;;;;;24.52;10.13;;;-2.40;99.90;;;;;;4853882;29;21952;-78
2024/01/17 01:32:24;;;;;;;28.00;11.40;;;-2.50;99.90;;;;;;4875194;29;20050;-78
2024/01/17 01:34:52;;;;;;;21.73;10.07;;;-2.50;99.90;;;;;;4875257;29;20108;-78
2024/01/17 01:37:23;;;;;;;25.70;9.82;;;-2.50;99.90;;;;;;4888292;29;20029;-78
2024/01/17 01:39:52;;;;;;;29.35;10.05;;;-2.60;99.90;;;;;;4857034;29;20045;-78
2024/01/17 01:42:21;;;;;;;24.00;9.68;;;-1.70;99.90;;;;;;4869419;29;20040;-78
2024/01/17 01:44:51;;;;;;;26.27;9.75;;;-2.50;99.90;;;;;;4871537;29;20075;-78
2024/01/17 01:47:21;;;;;;;22.63;8.10;;;-2.50;99.90;;;;;;4861516;29;20112;-78
2024/01/17 01:49:50;;;;;;;25.02;8.32;;;-2.30;99.90;;;;;;4858364;29;20104;-78
2024/01/17 01:52:21;;;;;;;20.67;7.60;;;-3.00;99.90;;;;;;4876703;29;20053;-78
2024/01/17 01:54:50;;;;;;;22.70;8.35;;;-2.60;99.90;;;;;;4876962;29;20033;-78
2024/01/17 01:57:20;;;;;;;18.38;8.05;;;-1.70;99.90;;;;;;4873201;29;20056;-78
2024/01/17 01:59:53;;;;;;;28.43;9.07;;;-2.70;99.90;;;;;;4875950;29;20098;-78
2024/01/17 02:02:25;;;;;;;19.88;7.72;;;-2.00;99.90;;;;;;4877271;29;20096;-78
2024/01/17 02:04:54;;;;;;;22.52;8.10;;;-0.80;99.90;;;;;;4890676;29;20059;-78
2024/01/17 02:07:25;;;;;;;23.50;8.00;;;-1.60;99.90;;;;;;4886125;29;20044;-78
2024/01/17 02:09:55;;;;;;;24.38;8.45;;;-2.80;99.90;;;;;;4874925;29;20044;-78
2024/01/17 02:12:24;;;;;;;16.52;6.38;;;-1.70;99.90;;;;;;4867640;29;21974;-80
2024/01/17 02:14:55;;;;;;;16.85;7.05;;;-1.90;99.90;;;;;;4874064;29;20044;-78
2024/01/17 02:17:24;;;;;;;20.83;7.18;;;-0.80;99.90;;;;;;4878382;29;21914;-78
2024/01/17 02:19:54;;;;;;;18.85;7.65;;;-2.20;99.90;;;;;;4857325;29;20033;-78
2024/01/17 02:22:22;;;;;;;20.73;7.88;;;-1.70;99.90;;;;;;4866601;29;20052;-75
2024/01/17 02:24:52;;;;;;;17.48;6.53;;;-2.70;99.90;;;;;;4849944;29;20416;-74
2024/01/17 02:27:21;;;;;;;16.58;7.43;;;-2.70;99.90;;;;;;4867535;29;20056;-74
2024/01/17 02:29:49;;;;;;;17.98;8.30;;;-2.70;99.90;;;;;;4867904;29;20462;-75
2024/01/17 02:32:18;;;;;;;16.80;7.25;;;-2.70;99.90;;;;;;4870245;29;20045;-74
2024/01/17 02:34:47;;;;;;;23.20;7.63;;;-2.70;99.90;;;;;;4864316;29;22651;-75
2024/01/17 02:37:16;;;;;;;17.15;6.80;;;-2.80;99.90;;;;;;4860070;29;20064;-74
2024/01/17 02:39:44;;;;;;;21.38;8.13;;;-2.70;99.90;;;;;;4858592;29;20061;-76
2024/01/17 02:42:14;;;;;;;17.17;6.05;;;-2.70;99.90;;;;;;4862160;29;20416;-74
2024/01/17 02:44:43;;;;;;;21.85;7.05;;;-2.80;99.90;;;;;;4866779;29;20133;-75
2024/01/17 02:47:11;;;;;;;16.38;6.50;;;-2.80;99.90;;;;;;4880176;29;20064;-74
2024/01/17 02:49:39;;;;;;;21.17;7.47;;;-2.20;99.90;;;;;;4874694;29;20049;-74
2024/01/17 02:52:08;;;;;;;19.95;7.75;;;-2.80;99.90;;;;;;4871076;29;20041;-75
2024/01/17 02:54:37;;;;;;;19.08;6.70;;;-2.80;99.90;;;;;;4853913;29;20081;-76
2024/01/17 02:57:06;;;;;;;20.58;7.40;;;-2.80;99.90;;;;;;4861971;29;20067;-76
2024/01/17 02:59:36;;;;;;;18.45;6.97;;;-2.80;99.90;;;;;;4862422;29;20068;-74
2024/01/17 03:02:05;;;;;;;19.92;7.38;;;-2.80;99.90;;;;;;4855389;29;20061;-75
2024/01/17 03:04:34;;;;;;;16.15;7.05;;;-2.90;99.90;;;;;;4873070;29;20445;-75
2024/01/17 03:07:02;;;;;;;17.42;5.38;;;-2.60;99.90;;;;;;4865037;29;20075;-74
2024/01/17 03:09:31;;;;;;;16.52;7.07;;;-2.90;99.90;;;;;;4879060;29;20500;-75
2024/01/17 03:12:01;;;;;;;15.00;5.72;;;-2.90;99.90;;;;;;4859659;29;20132;-74
2024/01/17 03:14:31;;;;;;;18.25;5.85;;;-2.90;99.90;;;;;;4865949;29;20093;-75
2024/01/17 03:17:01;;;;;;;19.17;7.07;;;-2.90;99.90;;;;;;4862883;29;20053;-74
2024/01/17 03:19:30;;;;;;;27.23;8.95;;;-2.90;99.90;;;;;;4872359;29;20140;-75
2024/01/17 03:21:58;;;;;;;29.27;10.30;;;-3.00;99.90;;;;;;4875171;29;22450;-75
2024/01/17 03:24:27;;;;;;;25.77;10.32;;;-3.00;99.90;;;;;;4862259;29;20061;-74
2024/01/17 03:26:55;;;;;;;28.83;10.00;;;-3.00;99.90;;;;;;4882662;29;20133;-74
2024/01/17 03:29:24;;;;;;;25.55;9.43;;;-2.20;99.90;;;;;;4876296;29;20100;-74
2024/01/17 03:31:52;;;;;;;25.73;9.50;;;-3.00;99.90;;;;;;4880356;29;20044;-74
2024/01/17 03:34:22;;;;;;;22.35;9.13;;;-3.00;99.90;;;;;;4858681;29;20108;-78
2024/01/17 03:36:51;;;;;;;26.63;9.00;;;-3.00;99.90;;;;;;4846601;29;20071;-78
2024/01/17 03:39:21;;;;;;;23.15;8.80;;;-3.00;99.90;;;;;;4861959;29;20680;-78
2024/01/17 03:41:49;;;;;;;23.45;8.32;;;-3.00;99.90;;;;;;4859847;29;20073;-78
2024/01/17 03:44:17;;;;;;;20.60;7.57;;;-3.00;99.90;;;;;;4842135;29;20144;-78
2024/01/17 03:46:46;;;;;;;20.92;8.20;;;-3.00;99.90;;;;;;4858377;29;20059;-78
2024/01/17 03:49:14;;;;;;;24.38;9.52;;;-3.00;99.90;;;;;;4852006;29;20579;-78
2024/01/17 03:51:44;;;;;;;21.25;8.50;;;-3.00;99.90;;;;;;4858106;29;20056;-78
2024/01/17 03:54:12;;;;;;;20.25;7.70;;;-3.00;99.90;;;;;;4857877;29;20053;-78
2024/01/17 03:56:41;;;;;;;24.27;8.18;;;-3.00;99.90;;;;;;4860300;29;20059;-78
2024/01/17 03:59:09;;;;;;;21.92;8.85;;;-3.00;99.90;;;;;;4850920;29;20056;-78
2024/01/17 04:01:43;;;;;;;22.13;8.07;;;-3.00;99.90;;;;;;4859132;29;20053;-78
2024/01/17 04:04:12;;;;;;;17.50;7.32;;;-3.10;99.90;;;;;;4857372;29;20203;-78
2024/01/17 04:06:41;;;;;;;23.00;9.02;;;-3.00;99.90;;;;;;4850431;29;20056;-78
2024/01/17 04:09:11;;;;;;;22.85;8.15;;;-3.30;99.90;;;;;;4867871;29;20085;-78
2024/01/17 04:11:40;;;;;;;26.88;10.70;;;-3.00;99.90;;;;;;4843838;29;20719;-78
2024/01/17 04:14:09;;;;;;;31.08;10.95;;;-3.00;99.90;;;;;;4860902;29;20783;-78
2024/01/17 04:16:37;;;;;;;31.77;11.02;;;-3.00;99.90;;;;;;4859627;29;20049;-78
2024/01/17 04:19:08;;;;;;;28.20;11.00;;;-3.10;99.90;;;;;;4852488;29;20059;-78
2024/01/17 04:21:37;;;;;;;27.02;11.25;;;-3.10;99.90;;;;;;4849761;29;20189;-78
2024/01/17 04:24:06;;;;;;;27.02;10.57;;;-2.90;99.90;;;;;;4854551;29;21030;-78
2024/01/17 04:26:36;;;;;;;28.58;10.45;;;-3.00;99.90;;;;;;4858449;29;20053;-78
2024/01/17 04:29:04;;;;;;;32.95;10.10;;;-3.00;99.90;;;;;;4858239;29;20063;-78
2024/01/17 04:31:33;;;;;;;28.27;10.05;;;-3.00;99.90;;;;;;4853089;29;20148;-78
2024/01/17 04:34:02;;;;;;;26.75;10.38;;;-3.10;99.90;;;;;;4842620;29;20128;-78
2024/01/17 04:36:32;;;;;;;28.70;9.63;;;-3.10;99.90;;;;;;4843238;29;20072;-78
2024/01/17 04:39:01;;;;;;;27.17;9.75;;;-3.10;99.90;;;;;;4860475;29;20747;-78
2024/01/17 04:41:30;;;;;;;29.15;10.60;;;-3.10;99.90;;;;;;4849397;29;20056;-78
2024/01/17 04:44:00;;;;;;;30.52;10.90;;;-3.10;99.90;;;;;;4859735;29;20053;-78
2024/01/17 04:46:29;;;;;;;32.72;11.32;;;-3.10;99.90;;;;;;4862942;29;20052;-78
2024/01/17 04:48:59;;;;;;;30.33;10.23;;;-3.20;99.90;;;;;;4845432;29;20068;-78
2024/01/17 04:51:28;;;;;;;19.60;7.78;;;-3.10;99.90;;;;;;4856407;29;20205;-78
2024/01/17 04:53:58;;;;;;;19.08;7.85;;;-3.20;99.90;;;;;;4847661;29;20088;-78
2024/01/17 04:56:27;;;;;;;22.73;8.20;;;-3.20;99.90;;;;;;4855970;29;20077;-79
2024/01/17 04:58:57;;;;;;;23.23;8.48;;;-3.20;99.90;;;;;;4846677;29;22690;-79
2024/01/17 05:01:26;;;;;;;21.58;7.38;;;-3.50;99.90;;;;;;4863112;29;20053;-78
2024/01/17 05:03:55;;;;;;;21.13;8.07;;;-2.60;99.90;;;;;;4857041;29;20108;-78
2024/01/17 05:06:23;;;;;;;21.25;7.72;;;-3.20;99.90;;;;;;4864709;29;20801;-78
2024/01/17 05:08:55;;;;;;;23.10;8.40;;;-3.20;99.90;;;;;;4852595;29;20056;-79
2024/01/17 05:11:27;;;;;;;20.25;8.35;;;-3.20;99.90;;;;;;4856572;29;20056;-78
2024/01/17 05:13:55;;;;;;;23.58;7.57;;;-3.20;99.90;;;;;;4846748;29;20056;-79
2024/01/17 05:16:24;;;;;;;21.40;7.32;;;-3.20;99.90;;;;;;4844801;29;20714;-79
2024/01/17 05:18:53;;;;;;;21.60;8.02;;;-3.20;99.90;;;;;;4853379;29;20172;-79
2024/01/17 05:21:23;;;;;;;19.13;7.65;;;-3.20;99.90;;;;;;4863249;29;20064;-79
2024/01/17 05:23:52;;;;;;;18.17;7.45;;;-3.20;99.90;;;;;;4848530;29;20072;-78
2024/01/17 05:26:20;;;;;;;16.55;7.15;;;-3.20;99.90;;;;;;4853511;29;20868;-78
2024/01/17 05:28:49;;;;;;;16.48;6.40;;;-3.20;99.90;;;;;;4857947;29;20060;-78
2024/01/17 05:31:17;;;;;;;17.95;7.63;;;-3.20;99.90;;;;;;4853224;29;20084;-78
2024/01/17 05:33:46;;;;;;;15.35;6.15;;;-3.20;99.90;;;;;;4862056;29;20057;-78
2024/01/17 05:36:16;;;;;;;16.58;6.22;;;-3.20;99.90;;;;;;4851855;29;20199;-79
2024/01/17 05:38:45;;;;;;;15.95;6.35;;;-3.20;99.90;;;;;;4859172;29;20049;-78
2024/01/17 05:41:13;;;;;;;19.35;6.53;;;-3.20;99.90;;;;;;4845760;29;20610;-78
2024/01/17 05:43:42;;;;;;;20.88;6.97;;;-3.10;99.90;;;;;;4850635;29;20193;-79
2024/01/17 05:46:10;;;;;;;17.38;6.55;;;-3.10;99.90;;;;;;4850787;29;20060;-78
2024/01/17 05:48:39;;;;;;;20.50;7.50;;;-3.10;99.90;;;;;;4869515;29;20060;-79
2024/01/17 05:51:08;;;;;;;16.45;7.78;;;-2.60;99.90;;;;;;4858013;29;20056;-78
2024/01/17 05:53:38;;;;;;;19.52;7.93;;;-2.90;99.90;;;;;;4852388;29;20055;-79
2024/01/17 05:56:07;;;;;;;16.60;7.93;;;-3.00;99.90;;;;;;4864536;29;20064;-78
2024/01/17 05:58:35;;;;;;;24.08;8.32;;;-3.00;99.90;;;;;;4847730;29;20068;-79
2024/01/17 06:01:04;;;;;;;16.77;7.68;;;-2.90;99.90;;;;;;4855367;29;20097;-79
2024/01/17 06:03:32;;;;;;;18.67;6.80;;;-2.90;99.90;;;;;;4864333;29;20131;-78
2024/01/17 06:06:01;;;;;;;17.90;6.90;;;-2.90;99.90;;;;;;4869887;29;20072;-79
2024/01/17 06:08:30;;;;;;;16.58;6.55;;;-2.90;99.90;;;;;;4862094;29;20073;-79
2024/01/17 06:11:01;;;;;;;15.02;5.63;;;-2.90;99.90;;;;;;4865988;29;20057;-80
2024/01/17 06:13:29;;;;;;;13.75;5.38;;;-2.80;99.90;;;;;;4862403;29;20048;-79
2024/01/17 06:15:57;;;;;;;15.70;5.72;;;-2.80;99.90;;;;;;4871044;29;20064;-79
2024/01/17 06:18:26;;;;;;;15.15;6.30;;;-2.80;99.90;;;;;;4862934;29;20038;-80
2024/01/17 06:20:55;;;;;;;24.50;7.38;;;-2.70;99.90;;;;;;4877156;29;20036;-79
2024/01/17 06:23:23;;;;;;;23.85;9.27;;;-2.70;99.90;;;;;;4862389;29;20056;-79
2024/01/17 06:25:52;;;;;;;12.57;4.88;;;-2.70;99.90;;;;;;4865045;29;20053;-80
2024/01/17 06:28:22;;;;;;;21.67;7.40;;;-1.60;99.90;;;;;;4877079;29;20045;-79
2024/01/17 06:30:52;;;;;;;19.23;4.50;;;-3.20;99.90;;;;;;4862014;29;20134;-80
2024/01/17 06:33:21;;;;;;;14.00;6.43;;;-2.70;99.90;;;;;;4866071;29;20048;-80
2024/01/17 06:35:51;;;;;;;15.52;5.85;;;-1.20;99.90;;;;;;4862889;29;20072;-80
2024/01/17 06:38:20;;;;;;;35.22;10.10;;;-2.70;99.90;;;;;;4842209;29;20615;-80
2024/01/17 06:40:49;;;;;;;35.17;11.48;;;-2.70;99.90;;;;;;4842029;29;20047;-80
2024/01/17 06:43:20;;;;;;;20.27;8.65;;;-2.70;99.90;;;;;;4860773;29;20043;-80
2024/01/17 06:45:53;;;;;;;27.25;9.70;;;-2.10;99.90;;;;;;4847898;29;20068;-78
2024/01/17 06:48:22;;;;;;;18.58;7.20;;;-2.80;99.90;;;;;;4857648;29;20109;-79
2024/01/17 06:50:52;;;;;;;22.05;7.75;;;-2.30;99.90;;;;;;4874282;29;22105;-81
2024/01/17 06:53:22;;;;;;;17.05;8.30;;;-1.40;99.90;;;;;;4873123;29;20041;-80
2024/01/17 06:55:51;;;;;;;24.88;8.70;;;-2.50;99.90;;;;;;4865003;29;20092;-80
2024/01/17 06:58:20;;;;;;;18.27;8.35;;;-2.00;99.90;;;;;;4840452;29;22808;-78
2024/01/17 07:00:48;;;;;;;17.95;6.30;;;-2.30;99.90;;;;;;4815446;29;20536;-78
2024/01/17 07:03:18;;;;;;;15.50;6.07;;;-2.40;99.90;;;;;;4825872;29;20624;-78
2024/01/17 07:05:47;;;;;;;14.45;5.93;;;-2.40;99.90;;;;;;4836677;29;20037;-77
2024/01/17 07:08:15;;;;;;;13.68;5.15;;;-1.50;99.90;;;;;;4841710;29;22533;-79
2024/01/17 07:10:44;;;;;;;44.42;13.57;;;-2.30;99.90;;;;;;4811121;29;22396;-79
2024/01/17 07:13:13;;;;;;;19.15;8.80;;;-2.20;99.90;;;;;;4823362;29;20496;-76
2024/01/17 07:15:42;;;;;;;20.60;8.68;;;-2.20;99.90;;;;;;4871135;29;20632;-75
2024/01/17 07:18:11;;;;;;;24.08;10.02;;;-2.20;99.90;;;;;;4870368;29;20052;-75
2024/01/17 07:20:42;;;;;;;27.35;8.40;;;-1.80;99.90;;;;;;4865513;29;20068;-75
2024/01/17 07:23:11;;;;;;;20.85;7.93;;;-2.20;99.90;;;;;;4872238;29;20048;-77
2024/01/17 07:25:40;;;;;;;19.35;7.88;;;-2.20;99.90;;;;;;4869209;29;20464;-76
2024/01/17 07:28:09;;;;;;;31.58;9.50;;;-2.20;99.90;;;;;;4851690;29;20065;-76
2024/01/17 07:30:38;;;;;;;24.77;10.32;;;-2.20;99.90;;;;;;4824143;29;20095;-75
2024/01/17 07:33:07;;;;;;;28.50;11.10;;;-2.20;99.90;;;;;;4848427;29;20109;-76
2024/01/17 07:35:38;;;;;;;24.27;9.05;;;-2.20;99.90;;;;;;4851928;29;20131;-75
2024/01/17 07:38:08;;;;;;;25.80;9.73;;;-2.20;99.90;;;;;;4842698;29;20061;-76
2024/01/17 07:40:37;;;;;;;24.05;8.98;;;-2.20;99.90;;;;;;4828505;29;20697;-76
2024/01/17 07:43:05;;;;;;;25.67;10.88;;;-2.20;99.90;;;;;;4835915;29;20053;-76
2024/01/17 07:45:33;;;;;;;27.73;9.82;;;-2.10;99.90;;;;;;4837321;29;20118;-76
2024/01/17 07:48:02;;;;;;;17.70;7.38;;;-2.10;99.90;;;;;;4829041;29;20177;-76
2024/01/17 07:50:31;;;;;;;24.45;7.75;;;-2.00;99.90;;;;;;4820937;29;20643;-75
2024/01/17 07:53:01;;;;;;;17.80;7.00;;;-2.10;99.90;;;;;;4838420;29;20045;-76
2024/01/17 07:55:30;;;;;;;21.60;8.00;;;-1.70;99.90;;;;;;4842041;29;20053;-76
2024/01/17 07:57:59;;;;;;;20.48;7.43;;;-2.00;99.90;;;;;;4824731;29;20057;-75
2024/01/17 08:00:28;;;;;;;17.48;6.93;;;-2.00;99.90;;;;;;4824984;29;20076;-77
2024/01/17 08:02:57;;;;;;;14.80;6.18;;;-2.00;99.90;;;;;;4814047;29;20191;-75
2024/01/17 08:05:27;;;;;;;16.63;6.82;;;-2.00;99.90;;;;;;4813020;29;20053;-76
2024/01/17 08:07:55;;;;;;;17.13;6.60;;;-1.90;99.90;;;;;;4815078;29;20080;-76
2024/01/17 08:10:24;;;;;;;20.52;6.97;;;-1.90;99.90;;;;;;4847229;29;20057;-77
2024/01/17 08:12:54;;;;;;;15.35;5.95;;;-1.90;99.90;;;;;;4825146;29;20792;-77
2024/01/17 08:15:22;;;;;;;16.45;7.15;;;-1.90;99.90;;;;;;4824237;29;20065;-78
2024/01/17 08:17:51;;;;;;;19.08;5.97;;;-1.90;99.90;;;;;;4817650;29;20071;-76
2024/01/17 08:20:20;;;;;;;17.20;6.10;;;-1.90;99.90;;;;;;4831246;29;20619;-76
2024/01/17 08:22:48;;;;;;;16.88;7.10;;;-1.90;99.90;;;;;;4811778;29;20057;-76
2024/01/17 08:25:18;;;;;;;15.32;6.13;;;-1.90;99.90;;;;;;4834818;29;20275;-78
2024/01/17 08:27:47;;;;;;;16.20;6.32;;;-1.10;99.90;;;;;;4835843;29;20037;-79
2024/01/17 08:30:18;;;;;;;20.38;7.97;;;-1.90;99.90;;;;;;4864767;29;20033;-80
2024/01/17 08:32:47;;;;;;;19.02;7.43;;;-0.60;99.90;;;;;;4854705;29;20048;-79
2024/01/17 08:35:16;;;;;;;18.85;6.95;;;-1.90;99.90;;;;;;4854121;29;20061;-79
2024/01/17 08:37:45;;;;;;;15.82;7.10;;;-1.80;99.90;;;;;;4853651;29;20056;-78
2024/01/17 08:40:15;;;;;;;17.73;7.18;;;-1.80;99.90;;;;;;4876842;29;20113;-79
2024/01/17 08:42:45;;;;;;;17.20;8.32;;;-2.40;99.90;;;;;;4853773;29;20052;-79
2024/01/17 08:45:15;;;;;;;21.52;7.10;;;-1.80;99.90;;;;;;4859778;29;20172;-78
2024/01/17 08:47:46;;;;;;;23.30;7.55;;;-1.80;99.90;;;;;;4887951;29;20098;-78
2024/01/17 08:50:15;;;;;;;17.55;7.38;;;-1.80;99.90;;;;;;4852516;29;20077;-79
2024/01/17 08:52:44;;;;;;;23.98;7.65;;;-0.90;99.90;;;;;;4865741;29;20058;-79
2024/01/17 08:55:13;;;;;;;20.23;7.95;;;-1.20;99.90;;;;;;4869533;29;20093;-78
2024/01/17 08:57:42;;;;;;;16.88;6.43;;;-1.80;99.90;;;;;;4863897;29;20061;-78
2024/01/17 09:00:14;;;;;;;8.48;4.55;;;-1.30;99.90;;;;;;4864167;29;20045;-79
2024/01/17 09:02:45;;;;;;;9.27;4.80;;;-1.70;99.90;;;;;;4862657;29;20040;-78
2024/01/17 09:05:18;;;;;;;17.05;6.93;;;-1.70;99.90;;;;;;4857175;29;20041;-78
2024/01/17 09:07:49;;;;;;;18.55;6.88;;;-1.70;99.90;;;;;;4856701;29;20045;-79
2024/01/17 09:10:19;;;;;;;13.77;6.07;;;-1.50;99.90;;;;;;4868928;29;20140;-79
2024/01/17 09:12:48;;;;;;;20.00;8.48;;;-1.70;99.90;;;;;;4876059;29;20036;-79
2024/01/17 09:15:21;;;;;;;11.98;5.10;;;-1.60;99.90;;;;;;4853980;29;20056;-78
2024/01/17 09:17:51;;;;;;;23.50;8.00;;;-1.60;99.90;;;;;;4850152;29;20053;-78
2024/01/17 09:20:21;;;;;;;18.55;6.90;;;-1.60;99.90;;;;;;4859999;29;20041;-78
2024/01/17 09:22:50;;;;;;;23.05;7.88;;;-1.70;99.90;;;;;;4872913;29;20036;-78
2024/01/17 09:25:19;;;;;;;23.60;10.43;;;-1.90;99.90;;;;;;4865878;29;20045;-78
2024/01/17 09:27:48;;;;;;;19.27;8.40;;;-2.00;99.90;;;;;;4864856;29;20124;-78
2024/01/17 09:30:17;;;;;;;14.57;7.10;;;-1.60;99.90;;;;;;4861800;29;20132;-78
2024/01/17 09:32:49;;;;;;;17.58;6.75;;;-1.50;99.90;;;;;;4870362;29;20025;-78
2024/01/17 09:35:19;;;;;;;22.35;8.07;;;-1.50;99.90;;;;;;4852597;29;20053;-78
2024/01/17 09:37:48;;;;;;;21.35;7.97;;;-1.40;99.90;;;;;;4834926;29;20551;-76
2024/01/17 09:40:17;;;;;;;20.17;8.73;;;-1.40;99.90;;;;;;4827252;29;20059;-75
2024/01/17 09:42:45;;;;;;;18.30;7.70;;;-1.40;99.90;;;;;;4841487;29;20165;-74
2024/01/17 09:45:18;;;;;;;18.80;7.38;;;-1.40;99.90;;;;;;4855428;29;20049;-75
2024/01/17 09:47:49;;;;;;;16.27;7.53;;;-1.30;99.90;;;;;;4829300;29;20084;-76
2024/01/17 09:50:19;;;;;;;18.58;7.07;;;-1.30;99.90;;;;;;4864722;29;20077;-75
2024/01/17 09:52:49;;;;;;;12.57;4.75;;;-1.20;99.90;;;;;;4828621;29;20045;-76
2024/01/17 09:55:20;;;;;;;20.40;7.25;;;-1.20;99.90;;;;;;4833892;29;20697;-76
2024/01/17 09:57:52;;;;;;;25.67;7.35;;;-1.20;99.90;;;;;;4844227;29;20103;-76
2024/01/17 10:00:22;;;;;;;19.10;7.63;;;-1.20;99.90;;;;;;4832544;29;20057;-75
2024/01/17 10:02:54;;;;;;;22.85;7.82;;;-1.10;99.90;;;;;;4842334;29;20404;-76
2024/01/17 10:05:27;;;;;;;16.00;6.50;;;-1.00;99.90;;;;;;4842517;29;20053;-77
2024/01/17 10:07:55;;;;;;;21.40;7.28;;;-0.80;99.90;;;;;;4846307;29;20399;-76
2024/01/17 10:10:24;;;;;;;22.60;8.68;;;-0.90;99.90;;;;;;4829899;29;20112;-75
2024/01/17 10:12:52;;;;;;;18.75;7.38;;;-1.00;99.90;;;;;;4835746;29;20218;-75
2024/01/17 10:15:23;;;;;;;19.33;7.32;;;-0.90;99.90;;;;;;4856369;29;20057;-78
2024/01/17 10:17:51;;;;;;;19.75;7.65;;;-0.90;99.90;;;;;;4851376;29;20053;-74
2024/01/17 10:20:24;;;;;;;21.88;9.18;;;-0.90;99.90;;;;;;4842275;29;20573;-75
2024/01/17 10:22:53;;;;;;;21.67;9.05;;;-0.20;99.90;;;;;;4859921;29;20436;-76
2024/01/17 10:25:21;;;;;;;24.02;9.45;;;-0.80;99.90;;;;;;4845186;29;20053;-74
2024/01/17 10:27:51;;;;;;;25.13;9.93;;;-0.90;99.90;;;;;;4842390;29;20060;-73
2024/01/17 10:30:20;;;;;;;21.58;8.38;;;-0.80;99.90;;;;;;4861340;29;20065;-75
2024/01/17 10:32:49;;;;;;;20.30;9.23;;;-0.90;99.90;;;;;;4851387;29;20053;-75
2024/01/17 10:35:19;;;;;;;19.35;8.10;;;-0.80;99.90;;;;;;4839858;29;20412;-74
2024/01/17 10:37:49;;;;;;;22.45;8.50;;;-0.80;99.90;;;;;;4828422;29;20424;-76
2024/01/17 10:40:19;;;;;;;22.02;7.88;;;-0.80;99.90;;;;;;4822038;29;22359;-75
2024/01/17 10:42:48;;;;;;;22.02;8.25;;;-0.70;99.90;;;;;;4831210;29;20064;-75
2024/01/17 10:45:21;;;;;;;19.38;8.52;;;-0.60;99.90;;;;;;4822616;29;20851;-76
2024/01/17 10:47:49;;;;;;;;;;;-0.60;99.90;;;;;;4832135;29;20569;-76
2024/01/17 10:50:18;;;;;;;20.33;7.07;;;-0.50;99.90;;;;;;4854996;29;20572;-77
2024/01/17 10:52:50;;;;;;;22.42;8.88;;;-0.40;99.90;;;;;;4831711;29;20079;-78
2024/01/17 10:55:22;;;;;;;24.73;8.77;;;-0.40;99.90;;;;;;4844072;29;20045;-75
2024/01/17 10:57:54;;;;;;;24.13;9.65;;;-0.50;99.90;;;;;;4871567;29;20052;-75
2024/01/17 11:00:29;;;;;;;26.40;9.95;;;-0.50;99.90;;;;;;4882638;29;20049;-75
2024/01/17 11:03:08;;;;;;;21.40;9.25;;;-0.40;99.90;;;;;;4876421;29;20131;-76
2024/01/17 11:05:45;;;;;;;23.65;8.68;;;-0.40;99.90;;;;;;4845117;29;20064;-75
2024/01/17 11:08:16;;;;;;;15.18;7.32;;;-0.50;99.90;;;;;;4874014;29;20052;-77
2024/01/17 11:10:46;;;;;;;20.48;8.00;;;-0.40;99.90;;;;;;4869054;29;20060;-77
2024/01/17 11:13:17;;;;;;;21.95;7.95;;;-0.30;99.90;;;;;;4844612;29;20064;-76
2024/01/17 11:15:47;;;;;;;23.60;9.50;;;0.80;99.90;;;;;;4863625;29;20515;-76
2024/01/17 11:18:16;;;;;;;20.88;8.95;;;0.10;99.90;;;;;;4872477;29;20279;-75
2024/01/17 11:20:46;;;;;;;26.23;10.55;;;-0.40;99.90;;;;;;4841919;29;20528;-77
2024/01/17 11:23:26;;;;;;;24.98;10.18;;;-0.30;99.90;;;;;;4861093;29;20063;-76
2024/01/17 11:26:03;;;;;;;25.10;9.27;;;-0.40;99.90;;;;;;4867658;29;20068;-76
2024/01/17 11:28:45;;;;;;;25.90;10.27;;;-0.40;99.90;;;;;;4832431;29;20065;-75
2024/01/17 11:31:24;;;;;;;24.40;9.90;;;-0.30;99.90;;;;;;4823039;29;20058;-75
2024/01/17 11:33:54;;;;;;;26.80;10.40;;;-0.30;99.90;;;;;;4829465;29;20054;-76
2024/01/17 11:36:42;;;;;;;29.38;10.40;;;-0.30;99.90;;;;;;4829013;29;20046;-76
2024/01/17 11:39:15;;;;;;;59.65;20.58;;;-0.20;99.90;;;;;;4808707;29;20050;-77
2024/01/17 11:41:46;;;;;;;57.15;23.35;;;-0.20;99.90;;;;;;4806284;29;20231;-77
2024/01/17 11:44:16;;;;;;;29.60;12.88;;;-0.20;99.90;;;;;;4812393;29;20061;-76
2024/01/17 11:46:49;;;;;;;40.85;22.27;;;-0.20;99.90;;;;;;4808866;29;20068;-77
2024/01/17 11:49:31;;;;;;;32.90;15.30;;;-0.20;99.90;;;;;;4814324;29;20333;-76
2024/01/17 11:52:01;;;;;;;94.70;33.17;;;-0.20;99.90;;;;;;4822218;29;20778;-75
2024/01/17 11:54:33;;;;;;;4.57;4.00;;;-0.20;99.90;;;;;;4810238;29;20092;-79
2024/01/17 11:57:08;;;;;;;17.95;7.10;;;-0.20;99.90;;;;;;4809033;29;20046;-79
2024/01/17 11:59:37;;;;;;;20.33;8.82;;;-0.30;99.90;;;;;;4822553;29;20038;-80
2024/01/17 12:02:06;;;;;;;15.57;6.72;;;-0.30;99.90;;;;;;4804882;29;20030;-79
2024/01/17 12:04:36;;;;;;;28.48;10.07;;;-0.20;99.90;;;;;;4801650;29;20067;-79
2024/01/17 12:07:09;;;;;;;28.52;11.02;;;-0.20;99.90;;;;;;4814730;29;20055;-80
2024/01/17 12:09:40;;;;;;;27.75;10.38;;;-0.10;99.90;;;;;;4823167;29;20097;-80
2024/01/17 12:12:09;;;;;;;22.38;9.57;;;0.00;99.90;;;;;;4817665;29;22311;-79
2024/01/17 12:14:38;;;;;;;17.27;7.00;;;-0.20;99.90;;;;;;4804009;29;21971;-79
2024/01/17 12:17:09;;;;;;;23.08;8.77;;;0.30;99.90;;;;;;4805977;29;20058;-79
2024/01/17 12:19:39;;;;;;;17.73;8.18;;;-0.20;99.90;;;;;;4818192;29;22313;-79
2024/01/17 12:22:09;;;;;;;14.32;5.93;;;1.20;99.90;;;;;;4820232;29;22217;-79
2024/01/17 12:24:40;;;;;;;36.95;15.13;;;-0.80;99.90;;;;;;4824939;29;20086;-79
2024/01/17 12:27:18;;;;;;;18.90;8.70;;;-0.30;99.90;;;;;;4855137;29;20093;-79
2024/01/17 12:29:50;;;;;;;15.15;7.75;;;-0.20;99.90;;;;;;4857225;29;20061;-77
2024/01/17 12:32:20;;;;;;;24.23;12.20;;;-0.60;99.90;;;;;;4859143;29;20120;-79
2024/01/17 12:34:49;;;;;;;23.85;11.27;;;0.00;99.90;;;;;;4858495;29;20041;-79
2024/01/17 12:37:19;;;;;;;9.68;4.28;;;-0.10;99.90;;;;;;4851755;29;20117;-78
2024/01/17 12:39:50;;;;;;;14.85;6.30;;;-0.10;99.90;;;;;;4850826;29;20056;-79
2024/01/17 12:42:22;;;;;;;21.70;9.80;;;0.00;99.90;;;;;;4851121;29;20041;-78
2024/01/17 12:44:51;;;;;;;21.85;9.35;;;-0.10;99.90;;;;;;4863202;29;20053;-79
2024/01/17 12:47:20;;;;;;;19.05;8.55;;;-0.10;99.90;;;;;;4865295;29;20060;-79